createdAt,value
2022-12-15T00:00:02.307Z,-6.31
2022-12-15T00:01:02.344Z,-6.29
2022-12-15T00:02:02.260Z,-6.27
2022-12-15T00:03:02.392Z,-6.24
2022-12-15T00:04:02.462Z,-6.19
2022-12-15T00:05:02.266Z,-6.16
2022-12-15T00:06:02.246Z,-6.16
2022-12-15T00:07:02.281Z,-6.09
2022-12-15T00:08:02.216Z,-6.09
2022-12-15T00:09:02.183Z,-6.08
2022-12-15T00:10:02.174Z,-6.09
2022-12-15T00:11:02.162Z,-6.09
2022-12-15T00:12:02.153Z,-6.10
2022-12-15T00:13:02.162Z,-6.13
2022-12-15T00:14:02.130Z,-6.16
2022-12-15T00:15:02.121Z,-6.17
2022-12-15T00:16:02.135Z,-6.19
2022-12-15T00:17:02.103Z,-6.20
2022-12-15T00:18:02.119Z,-6.23
2022-12-15T00:19:02.082Z,-6.24
2022-12-15T00:20:02.066Z,-6.27
2022-12-15T00:21:02.062Z,-6.34
2022-12-15T00:22:02.041Z,-6.34
2022-12-15T00:23:02.055Z,-6.32
2022-12-15T00:24:02.040Z,-6.31
2022-12-15T00:25:02.017Z,-6.27
2022-12-15T00:26:02.004Z,-6.27
2022-12-15T00:27:02.002Z,-6.27
2022-12-15T00:28:02.001Z,-6.26
2022-12-15T00:29:01.968Z,-6.26
2022-12-15T00:30:01.959Z,-6.24
2022-12-15T00:31:02.657Z,-6.26
2022-12-15T00:32:01.986Z,-6.26
2022-12-15T00:33:01.949Z,-6.24
2022-12-15T00:34:01.935Z,-6.24
2022-12-15T00:35:01.914Z,-6.27
2022-12-15T00:36:01.891Z,-6.29
2022-12-15T00:37:01.882Z,-6.27
2022-12-15T00:38:01.889Z,-6.27
2022-12-15T00:39:03.951Z,-6.27
2022-12-15T00:40:01.841Z,-6.26
2022-12-15T00:41:01.860Z,-6.23
2022-12-15T00:42:01.843Z,-6.23
2022-12-15T00:43:01.839Z,-6.21
2022-12-15T00:44:01.798Z,-6.21
2022-12-15T00:45:01.813Z,-6.21
2022-12-15T00:46:01.866Z,-6.21
2022-12-15T00:47:01.850Z,-6.21
2022-12-15T00:48:01.800Z,-6.21
2022-12-15T00:49:01.759Z,-6.21
2022-12-15T00:50:01.804Z,-6.23
2022-12-15T00:51:01.729Z,-6.21
2022-12-15T00:52:01.716Z,-6.21
2022-12-15T00:53:01.725Z,-6.23
2022-12-15T00:54:01.690Z,-6.24
2022-12-15T00:55:01.717Z,-6.26
2022-12-15T00:56:01.669Z,-6.23
2022-12-15T00:57:01.662Z,-6.19
2022-12-15T00:58:01.671Z,-6.16
2022-12-15T00:59:01.639Z,-6.16
2022-12-15T01:00:01.635Z,-6.17
2022-12-15T01:01:01.621Z,-6.17
2022-12-15T01:02:01.696Z,-6.21
2022-12-15T01:03:01.867Z,-6.17
2022-12-15T01:04:01.610Z,-6.19
2022-12-15T01:05:01.601Z,-6.19
2022-12-15T01:06:01.566Z,-6.19
2022-12-15T01:07:01.556Z,-6.17
2022-12-15T01:08:01.577Z,-6.14
2022-12-15T01:09:01.533Z,-6.13
2022-12-15T01:10:01.520Z,-6.13
2022-12-15T01:11:01.530Z,-6.16
2022-12-15T01:12:01.520Z,-6.13
2022-12-15T01:13:01.502Z,-6.14
2022-12-15T01:14:01.481Z,-6.10
2022-12-15T01:15:01.461Z,-6.10
2022-12-15T01:16:01.585Z,-6.13
2022-12-15T01:17:01.437Z,-6.13
2022-12-15T01:18:01.458Z,-6.14
2022-12-15T01:19:01.426Z,-6.16
2022-12-15T01:20:01.415Z,-6.14
2022-12-15T01:21:01.404Z,-6.17
2022-12-15T01:22:01.408Z,-6.19
2022-12-15T01:23:01.442Z,-6.20
2022-12-15T01:24:01.376Z,-6.19
2022-12-15T01:25:01.352Z,-6.20
2022-12-15T01:26:01.346Z,-6.21
2022-12-15T01:27:01.331Z,-6.24
2022-12-15T01:28:01.345Z,-6.24
2022-12-15T01:29:01.307Z,-6.27
2022-12-15T01:30:01.301Z,-6.29
2022-12-15T01:31:01.338Z,-6.29
2022-12-15T01:32:01.316Z,-6.29
2022-12-15T01:33:01.284Z,-6.27
2022-12-15T01:34:01.279Z,-6.27
2022-12-15T01:35:01.312Z,-6.29
2022-12-15T01:36:01.244Z,-6.26
2022-12-15T01:37:01.249Z,-6.24
2022-12-15T01:38:01.215Z,-6.23
2022-12-15T01:39:01.240Z,-6.23
2022-12-15T01:40:01.213Z,-6.21
2022-12-15T01:41:01.176Z,-6.21
2022-12-15T01:42:01.178Z,-6.23
2022-12-15T01:43:01.165Z,-6.23
2022-12-15T01:44:01.170Z,-6.24
2022-12-15T01:45:01.147Z,-6.26
2022-12-15T01:46:01.123Z,-6.27
2022-12-15T01:47:01.245Z,-6.31
2022-12-15T01:48:01.109Z,-6.31
2022-12-15T01:49:01.122Z,-6.34
2022-12-15T01:50:01.087Z,-6.35
2022-12-15T01:51:01.078Z,-6.34
2022-12-15T01:52:01.074Z,-6.34
2022-12-15T01:53:01.052Z,-6.34
2022-12-15T01:54:01.060Z,-6.37
2022-12-15T01:55:01.031Z,-6.37
2022-12-15T01:56:01.083Z,-6.37
2022-12-15T01:57:01.008Z,-6.41
2022-12-15T01:58:00.996Z,-6.41
2022-12-15T01:59:01.014Z,-6.41
2022-12-15T02:00:00.975Z,-6.44
2022-12-15T02:01:01.015Z,-6.47
2022-12-15T02:02:01.040Z,-6.47
2022-12-15T02:03:01.138Z,-6.47
2022-12-15T02:04:00.931Z,-6.47
2022-12-15T02:05:00.943Z,-6.47
2022-12-15T02:06:00.905Z,-6.50
2022-12-15T02:07:00.900Z,-6.48
2022-12-15T02:08:00.886Z,-6.47
2022-12-15T02:09:00.880Z,-6.45
2022-12-15T02:10:00.894Z,-6.47
2022-12-15T02:11:00.861Z,-6.45
2022-12-15T02:12:00.848Z,-6.42
2022-12-15T02:13:00.832Z,-6.41
2022-12-15T02:14:00.834Z,-6.39
2022-12-15T02:15:00.854Z,-6.37
2022-12-15T02:16:00.854Z,-6.38
2022-12-15T02:17:00.795Z,-6.37
2022-12-15T02:18:00.783Z,-6.37
2022-12-15T02:19:00.776Z,-6.37
2022-12-15T02:20:00.760Z,-6.41
2022-12-15T02:21:01.130Z,-6.44
2022-12-15T02:22:00.734Z,-6.47
2022-12-15T02:23:00.728Z,-6.50
2022-12-15T02:24:00.718Z,-6.50
2022-12-15T02:25:00.711Z,-6.53
2022-12-15T02:26:00.694Z,-6.53
2022-12-15T02:27:00.715Z,-6.53
2022-12-15T02:28:00.679Z,-6.56
2022-12-15T02:29:00.666Z,-6.59
2022-12-15T02:30:00.650Z,-6.55
2022-12-15T02:31:00.645Z,-6.53
2022-12-15T02:32:00.722Z,-6.52
2022-12-15T02:33:00.642Z,-6.52
2022-12-15T02:34:00.613Z,-6.50
2022-12-15T02:35:00.600Z,-6.50
2022-12-15T02:36:00.626Z,-6.48
2022-12-15T02:37:00.584Z,-6.52
2022-12-15T02:38:00.596Z,-6.53
2022-12-15T02:39:01.473Z,-6.50
2022-12-15T02:40:00.541Z,-6.47
2022-12-15T02:41:00.533Z,-6.45
2022-12-15T02:42:00.557Z,-6.42
2022-12-15T02:43:00.516Z,-6.42
2022-12-15T02:44:00.523Z,-6.42
2022-12-15T02:45:00.492Z,-6.42
2022-12-15T02:46:00.525Z,-6.44
2022-12-15T02:47:00.481Z,-6.44
2022-12-15T02:48:00.456Z,-6.48
2022-12-15T02:49:00.446Z,-6.45
2022-12-15T02:50:00.457Z,-6.42
2022-12-15T02:51:00.456Z,-6.41
2022-12-15T02:52:00.412Z,-6.39
2022-12-15T02:53:00.405Z,-6.38
2022-12-15T02:54:00.411Z,-6.35
2022-12-15T02:55:00.405Z,-6.34
2022-12-15T02:56:00.371Z,-6.32
2022-12-15T02:57:00.375Z,-6.34
2022-12-15T02:58:00.369Z,-6.31
2022-12-15T02:59:00.347Z,-6.31
2022-12-15T03:00:00.326Z,-6.31
2022-12-15T03:01:00.397Z,-6.27
2022-12-15T03:02:00.550Z,-6.29
2022-12-15T03:03:00.545Z,-6.29
2022-12-15T03:04:00.285Z,-6.29
2022-12-15T03:05:00.316Z,-6.31
2022-12-15T03:06:00.261Z,-6.31
2022-12-15T03:07:01.396Z,-6.31
2022-12-15T03:08:00.240Z,-6.32
2022-12-15T03:09:00.233Z,-6.31
2022-12-15T03:10:00.224Z,-6.31
2022-12-15T03:11:00.207Z,-6.32
2022-12-15T03:12:00.203Z,-6.32
2022-12-15T03:13:00.206Z,-6.29
2022-12-15T03:14:00.177Z,-6.24
2022-12-15T03:15:00.165Z,-6.21
2022-12-15T03:16:00.216Z,-6.19
2022-12-15T03:17:00.222Z,-6.19
2022-12-15T03:18:00.142Z,-6.19
2022-12-15T03:19:00.246Z,-6.16
2022-12-15T03:20:00.160Z,-6.16
2022-12-15T03:21:00.108Z,-6.16
2022-12-15T03:22:00.129Z,-6.16
2022-12-15T03:23:00.080Z,-6.16
2022-12-15T03:24:00.109Z,-6.14
2022-12-15T03:25:00.068Z,-6.14
2022-12-15T03:26:00.044Z,-6.16
2022-12-15T03:27:00.033Z,-6.13
2022-12-15T03:28:00.029Z,-6.13
2022-12-15T03:29:00.006Z,-6.10
2022-12-15T03:30:00.026Z,-6.10
2022-12-15T03:30:59.985Z,-6.13
2022-12-15T03:31:59.993Z,-6.14
2022-12-15T03:32:59.966Z,-6.14
2022-12-15T03:33:59.962Z,-6.14
2022-12-15T03:34:59.944Z,-6.17
2022-12-15T03:35:59.981Z,-6.19
2022-12-15T03:36:59.923Z,-6.19
2022-12-15T03:37:59.926Z,-6.19
2022-12-15T03:38:59.911Z,-6.17
2022-12-15T03:39:59.895Z,-6.20
2022-12-15T03:40:59.877Z,-6.19
2022-12-15T03:41:59.904Z,-6.20
2022-12-15T03:42:59.856Z,-6.19
2022-12-15T03:43:59.851Z,-6.17
2022-12-15T03:44:59.836Z,-6.17
2022-12-15T03:45:59.849Z,-6.19
2022-12-15T03:47:03.163Z,-6.17
2022-12-15T03:47:59.843Z,-6.14
2022-12-15T03:48:59.793Z,-6.16
2022-12-15T03:49:59.784Z,-6.16
2022-12-15T03:50:59.771Z,-6.14
2022-12-15T03:51:59.766Z,-6.13
2022-12-15T03:52:59.748Z,-6.09
2022-12-15T03:54:00.115Z,-6.06
2022-12-15T03:54:59.723Z,-6.05
2022-12-15T03:55:59.719Z,-6.05
2022-12-15T03:56:59.704Z,-6.02
2022-12-15T03:57:59.700Z,-6.02
2022-12-15T03:58:59.687Z,-6.03
2022-12-15T03:59:59.713Z,-6.08
2022-12-15T04:00:59.700Z,-6.06
2022-12-15T04:01:59.879Z,-6.00
2022-12-15T04:02:59.840Z,-6.00
2022-12-15T04:04:01.294Z,-5.98
2022-12-15T04:04:59.619Z,-5.99
2022-12-15T04:05:59.629Z,-5.99
2022-12-15T04:06:59.594Z,-5.99
2022-12-15T04:07:59.600Z,-6.03
2022-12-15T04:08:59.576Z,-6.03
2022-12-15T04:09:59.562Z,-6.02
2022-12-15T04:10:59.559Z,-6.03
2022-12-15T04:11:59.576Z,-6.03
2022-12-15T04:12:59.533Z,-6.02
2022-12-15T04:13:59.519Z,-5.99
2022-12-15T04:14:59.512Z,-6.00
2022-12-15T04:15:59.498Z,-6.02
2022-12-15T04:16:59.636Z,-6.03
2022-12-15T04:17:59.511Z,-6.02
2022-12-15T04:18:59.471Z,-6.05
2022-12-15T04:19:59.454Z,-6.05
2022-12-15T04:20:59.451Z,-6.05
2022-12-15T04:21:59.433Z,-6.09
2022-12-15T04:22:59.426Z,-6.13
2022-12-15T04:23:59.449Z,-6.09
2022-12-15T04:24:59.405Z,-6.10
2022-12-15T04:25:59.390Z,-6.08
2022-12-15T04:26:59.382Z,-6.05
2022-12-15T04:28:01.707Z,-6.00
2022-12-15T04:28:59.388Z,-5.99
2022-12-15T04:29:59.344Z,-5.98
2022-12-15T04:30:59.374Z,-5.98
2022-12-15T04:31:59.323Z,-5.98
2022-12-15T04:32:59.323Z,-5.98
2022-12-15T04:33:59.304Z,-5.98
2022-12-15T04:34:59.328Z,-5.92
2022-12-15T04:35:59.280Z,-5.88
2022-12-15T04:36:59.292Z,-5.87
2022-12-15T04:37:59.257Z,-5.84
2022-12-15T04:38:59.252Z,-5.85
2022-12-15T04:39:59.241Z,-5.82
2022-12-15T04:40:59.255Z,-5.81
2022-12-15T04:41:59.215Z,-5.78
2022-12-15T04:42:59.208Z,-5.78
2022-12-15T04:43:59.212Z,-5.77
2022-12-15T04:44:59.193Z,-5.77
2022-12-15T04:45:59.244Z,-5.77
2022-12-15T04:46:59.175Z,-5.77
2022-12-15T04:47:59.212Z,-5.77
2022-12-15T04:48:59.160Z,-5.73
2022-12-15T04:49:59.142Z,-5.75
2022-12-15T04:50:59.189Z,-5.73
2022-12-15T04:51:59.149Z,-5.70
2022-12-15T04:52:59.126Z,-5.70
2022-12-15T04:53:59.106Z,-5.70
2022-12-15T04:54:59.082Z,-5.70
2022-12-15T04:55:59.111Z,-5.70
2022-12-15T04:56:59.059Z,-5.71
2022-12-15T04:57:59.043Z,-5.75
2022-12-15T04:58:59.036Z,-5.78
2022-12-15T04:59:59.150Z,-5.77
2022-12-15T05:00:59.160Z,-5.78
2022-12-15T05:01:59.097Z,-5.78
2022-12-15T05:02:58.992Z,-5.80
2022-12-15T05:03:59.022Z,-5.77
2022-12-15T05:04:58.970Z,-5.75
2022-12-15T05:05:58.974Z,-5.77
2022-12-15T05:06:58.950Z,-5.77
2022-12-15T05:07:58.931Z,-5.80
2022-12-15T05:08:58.924Z,-5.78
2022-12-15T05:10:02.947Z,-5.78
2022-12-15T05:10:58.919Z,-5.80
2022-12-15T05:11:58.898Z,-5.84
2022-12-15T05:12:58.875Z,-5.87
2022-12-15T05:13:58.871Z,-5.87
2022-12-15T05:14:58.856Z,-5.85
2022-12-15T05:15:59.009Z,-5.87
2022-12-15T05:16:58.856Z,-5.90
2022-12-15T05:17:58.828Z,-5.91
2022-12-15T05:18:58.813Z,-5.88
2022-12-15T05:19:58.809Z,-5.91
2022-12-15T05:20:58.821Z,-5.91
2022-12-15T05:21:58.784Z,-5.87
2022-12-15T05:22:58.767Z,-5.88
2022-12-15T05:23:58.761Z,-5.87
2022-12-15T05:24:58.750Z,-5.85
2022-12-15T05:25:58.779Z,-5.85
2022-12-15T05:26:58.723Z,-5.85
2022-12-15T05:27:58.723Z,-5.87
2022-12-15T05:28:58.701Z,-5.88
2022-12-15T05:29:58.701Z,-5.87
2022-12-15T05:30:58.765Z,-5.87
2022-12-15T05:31:58.672Z,-5.88
2022-12-15T05:32:58.660Z,-5.87
2022-12-15T05:34:04.745Z,-5.82
2022-12-15T05:34:58.647Z,-5.81
2022-12-15T05:35:58.657Z,-5.85
2022-12-15T05:36:58.622Z,-5.84
2022-12-15T05:37:58.609Z,-5.85
2022-12-15T05:38:58.595Z,-5.84
2022-12-15T05:39:58.589Z,-5.87
2022-12-15T05:40:58.574Z,-5.88
2022-12-15T05:41:58.599Z,-5.90
2022-12-15T05:42:58.550Z,-5.88
2022-12-15T05:43:58.543Z,-5.87
2022-12-15T05:44:58.529Z,-5.84
2022-12-15T05:45:58.541Z,-5.84
2022-12-15T05:46:58.504Z,-5.82
2022-12-15T05:47:58.527Z,-5.84
2022-12-15T05:48:58.485Z,-5.84
2022-12-15T05:49:58.477Z,-5.84
2022-12-15T05:50:58.463Z,-5.82
2022-12-15T05:51:58.465Z,-5.80
2022-12-15T05:52:58.443Z,-5.80
2022-12-15T05:53:58.462Z,-5.81
2022-12-15T05:54:58.421Z,-5.80
2022-12-15T05:55:58.416Z,-5.81
2022-12-15T05:56:58.399Z,-5.78
2022-12-15T05:57:58.387Z,-5.80
2022-12-15T05:58:58.409Z,-5.78
2022-12-15T05:59:58.400Z,-5.80
2022-12-15T06:00:58.355Z,-5.81
2022-12-15T06:01:58.423Z,-5.85
2022-12-15T06:02:58.384Z,-5.82
2022-12-15T06:03:58.323Z,-5.82
2022-12-15T06:04:58.368Z,-5.81
2022-12-15T06:05:58.505Z,-5.80
2022-12-15T06:06:58.293Z,-5.78
2022-12-15T06:07:58.275Z,-5.78
2022-12-15T06:08:58.275Z,-5.77
2022-12-15T06:09:58.261Z,-5.77
2022-12-15T06:10:58.242Z,-5.73
2022-12-15T06:11:58.265Z,-5.70
2022-12-15T06:12:58.251Z,-5.66
2022-12-15T06:13:58.216Z,-5.64
2022-12-15T06:14:58.203Z,-5.63
2022-12-15T06:15:58.251Z,-5.64
2022-12-15T06:16:58.242Z,-5.63
2022-12-15T06:17:58.205Z,-5.62
2022-12-15T06:18:58.182Z,-5.60
2022-12-15T06:19:58.153Z,-5.57
2022-12-15T06:20:58.186Z,-5.55
2022-12-15T06:21:58.142Z,-5.53
2022-12-15T06:22:58.114Z,-5.52
2022-12-15T06:23:58.136Z,-5.49
2022-12-15T06:24:58.095Z,-5.46
2022-12-15T06:25:58.088Z,-5.46
2022-12-15T06:26:58.069Z,-5.46
2022-12-15T06:28:01.716Z,-5.46
2022-12-15T06:28:58.050Z,-5.48
2022-12-15T06:29:58.097Z,-5.49
2022-12-15T06:30:58.068Z,-5.49
2022-12-15T06:31:58.033Z,-5.48
2022-12-15T06:32:58.002Z,-5.48
2022-12-15T06:34:01.999Z,-5.48
2022-12-15T06:34:58.010Z,-5.51
2022-12-15T06:35:57.976Z,-5.53
2022-12-15T06:36:57.961Z,-5.53
2022-12-15T06:37:57.955Z,-5.55
2022-12-15T06:38:57.946Z,-5.53
2022-12-15T06:39:57.932Z,-5.53
2022-12-15T06:40:57.949Z,-5.57
2022-12-15T06:41:57.915Z,-5.53
2022-12-15T06:42:57.894Z,-5.51
2022-12-15T06:43:57.894Z,-5.52
2022-12-15T06:44:57.871Z,-5.53
2022-12-15T06:45:57.867Z,-5.57
2022-12-15T06:46:57.930Z,-5.57
2022-12-15T06:48:01.333Z,-5.55
2022-12-15T06:48:57.831Z,-5.59
2022-12-15T06:49:57.823Z,-5.60
2022-12-15T06:50:57.806Z,-5.59
2022-12-15T06:51:57.802Z,-5.57
2022-12-15T06:52:57.810Z,-5.55
2022-12-15T06:53:57.775Z,-5.55
2022-12-15T06:54:57.787Z,-5.55
2022-12-15T06:55:57.754Z,-5.59
2022-12-15T06:56:57.745Z,-5.62
2022-12-15T06:57:57.741Z,-5.64
2022-12-15T06:58:57.744Z,-5.63
2022-12-15T06:59:57.714Z,-5.63
2022-12-15T07:00:57.702Z,-5.63
2022-12-15T07:01:57.856Z,-5.64
2022-12-15T07:02:57.864Z,-5.64
2022-12-15T07:03:57.857Z,-5.63
2022-12-15T07:04:57.684Z,-5.62
2022-12-15T07:05:57.650Z,-5.64
2022-12-15T07:06:57.633Z,-5.63
2022-12-15T07:07:57.773Z,-5.63
2022-12-15T07:08:57.619Z,-5.63
2022-12-15T07:09:57.599Z,-5.63
2022-12-15T07:10:57.978Z,-5.64
2022-12-15T07:11:57.583Z,-5.64
2022-12-15T07:12:57.570Z,-5.66
2022-12-15T07:13:57.583Z,-5.63
2022-12-15T07:14:57.550Z,-5.62
2022-12-15T07:15:57.564Z,-5.60
2022-12-15T07:16:57.549Z,-5.59
2022-12-15T07:17:57.512Z,-5.59
2022-12-15T07:18:57.505Z,-5.55
2022-12-15T07:19:57.492Z,-5.53
2022-12-15T07:20:57.484Z,-5.51
2022-12-15T07:21:57.511Z,-5.49
2022-12-15T07:22:57.460Z,-5.49
2022-12-15T07:23:58.230Z,-5.49
2022-12-15T07:24:57.443Z,-5.49
2022-12-15T07:25:57.429Z,-5.52
2022-12-15T07:26:57.421Z,-5.53
2022-12-15T07:27:57.435Z,-5.53
2022-12-15T07:28:57.400Z,-5.51
2022-12-15T07:29:57.394Z,-5.53
2022-12-15T07:30:57.378Z,-5.55
2022-12-15T07:31:57.436Z,-5.53
2022-12-15T07:32:57.354Z,-5.51
2022-12-15T07:33:57.360Z,-5.48
2022-12-15T07:34:57.338Z,-5.48
2022-12-15T07:35:57.324Z,-5.48
2022-12-15T07:36:57.310Z,-5.49
2022-12-15T07:37:57.291Z,-5.49
2022-12-15T07:38:57.317Z,-5.48
2022-12-15T07:39:57.275Z,-5.49
2022-12-15T07:40:57.267Z,-5.49
2022-12-15T07:41:57.251Z,-5.48
2022-12-15T07:42:57.248Z,-5.46
2022-12-15T07:43:57.230Z,-5.45
2022-12-15T07:44:57.258Z,-5.45
2022-12-15T07:45:57.237Z,-5.45
2022-12-15T07:46:57.201Z,-5.42
2022-12-15T07:47:57.188Z,-5.41
2022-12-15T07:48:57.180Z,-5.41
2022-12-15T07:49:57.197Z,-5.38
2022-12-15T07:51:02.762Z,-5.38
2022-12-15T07:51:57.146Z,-5.38
2022-12-15T07:52:57.137Z,-5.39
2022-12-15T07:53:57.123Z,-5.39
2022-12-15T07:54:57.118Z,-5.35
2022-12-15T07:56:07.364Z,-5.34
2022-12-15T07:56:57.107Z,-5.34
2022-12-15T07:57:57.078Z,-5.38
2022-12-15T07:58:57.075Z,-5.31
2022-12-15T07:59:57.094Z,-5.33
2022-12-15T08:00:57.076Z,-5.33
2022-12-15T08:01:57.218Z,-5.31
2022-12-15T08:02:57.247Z,-5.30
2022-12-15T08:03:57.074Z,-5.27
2022-12-15T08:04:57.024Z,-5.24
2022-12-15T08:06:03.641Z,-5.24
2022-12-15T08:06:57.011Z,-5.24
2022-12-15T08:07:56.971Z,-5.23
2022-12-15T08:08:56.964Z,-5.23
2022-12-15T08:09:56.950Z,-5.17
2022-12-15T08:10:56.936Z,-5.17
2022-12-15T08:11:56.952Z,-5.17
2022-12-15T08:12:56.915Z,-5.16
2022-12-15T08:14:07.767Z,-5.13
2022-12-15T08:14:56.900Z,-5.12
2022-12-15T08:15:57.064Z,-5.09
2022-12-15T08:16:56.959Z,-5.08
2022-12-15T08:17:56.866Z,-5.03
2022-12-15T08:18:56.846Z,-4.99
2022-12-15T08:19:58.920Z,-4.93
2022-12-15T08:20:56.825Z,-4.90
2022-12-15T08:21:56.839Z,-4.88
2022-12-15T08:22:56.802Z,-4.85
2022-12-15T08:23:56.794Z,-4.87
2022-12-15T08:24:56.781Z,-4.85
2022-12-15T08:25:56.775Z,-4.87
2022-12-15T08:26:56.795Z,-4.85
2022-12-15T08:27:56.783Z,-4.85
2022-12-15T08:28:57.118Z,-4.84
2022-12-15T08:29:56.737Z,-4.77
2022-12-15T08:30:56.740Z,-4.77
2022-12-15T08:31:56.809Z,-4.77
2022-12-15T08:32:56.731Z,-4.72
2022-12-15T08:33:56.689Z,-4.72
2022-12-15T08:34:56.672Z,-4.72
2022-12-15T08:35:57.378Z,-4.67
2022-12-15T08:36:56.680Z,-4.66
2022-12-15T08:37:59.854Z,-4.63
2022-12-15T08:38:56.657Z,-4.62
2022-12-15T08:39:56.622Z,-4.58
2022-12-15T08:40:56.616Z,-4.58
2022-12-15T08:41:56.602Z,-4.54
2022-12-15T08:42:56.586Z,-4.49
2022-12-15T08:43:56.609Z,-4.46
2022-12-15T08:44:56.568Z,-4.41
2022-12-15T08:45:56.591Z,-4.38
2022-12-15T08:46:56.540Z,-4.36
2022-12-15T08:47:56.542Z,-4.31
2022-12-15T08:48:56.525Z,-4.28
2022-12-15T08:49:56.536Z,-4.27
2022-12-15T08:50:56.500Z,-4.23
2022-12-15T08:51:56.495Z,-4.23
2022-12-15T08:53:28.960Z,-4.22
2022-12-15T08:53:56.504Z,-4.19
2022-12-15T08:54:56.577Z,-4.19
2022-12-15T08:55:56.457Z,-4.17
2022-12-15T08:56:56.445Z,-4.15
2022-12-15T08:57:56.507Z,-4.13
2022-12-15T08:58:56.424Z,-4.10
2022-12-15T08:59:56.459Z,-4.04
2022-12-15T09:00:56.494Z,-4.02
2022-12-15T09:01:56.517Z,-3.95
2022-12-15T09:02:56.395Z,-3.88
2022-12-15T09:03:56.434Z,-3.80
2022-12-15T09:04:56.368Z,-3.70
2022-12-15T09:05:56.416Z,-3.70
2022-12-15T09:06:56.407Z,-3.72
2022-12-15T09:07:59.354Z,-3.74
2022-12-15T09:08:56.326Z,-3.72
2022-12-15T09:09:56.294Z,-3.70
2022-12-15T09:10:56.355Z,-3.69
2022-12-15T09:11:56.342Z,-3.70
2022-12-15T09:12:56.309Z,-3.70
2022-12-15T09:13:56.280Z,-3.72
2022-12-15T09:14:56.308Z,-3.74
2022-12-15T09:16:11.856Z,-3.76
2022-12-15T09:16:56.426Z,-3.74
2022-12-15T09:17:56.213Z,-3.69
2022-12-15T09:18:56.207Z,-3.68
2022-12-15T09:19:56.273Z,-3.64
2022-12-15T09:20:56.181Z,-3.62
2022-12-15T09:21:56.208Z,-3.58
2022-12-15T09:22:56.184Z,-3.57
2022-12-15T09:23:56.139Z,-3.54
2022-12-15T09:24:56.133Z,-3.55
2022-12-15T09:25:56.119Z,-3.54
2022-12-15T09:26:56.200Z,-3.49
2022-12-15T09:27:56.115Z,-3.49
2022-12-15T09:28:56.089Z,-3.44
2022-12-15T09:29:56.074Z,-3.39
2022-12-15T09:30:56.107Z,-3.36
2022-12-15T09:31:56.052Z,-3.34
2022-12-15T09:32:56.065Z,-3.33
2022-12-15T09:33:56.029Z,-3.30
2022-12-15T09:34:56.030Z,-3.30
2022-12-15T09:35:56.008Z,-3.33
2022-12-15T09:36:56.010Z,-3.30
2022-12-15T09:37:55.989Z,-3.25
2022-12-15T09:38:56.007Z,-3.22
2022-12-15T09:39:55.964Z,-3.22
2022-12-15T09:40:55.958Z,-3.21
2022-12-15T09:41:55.946Z,-3.19
2022-12-15T09:43:25.816Z,-3.15
2022-12-15T09:43:56.632Z,-3.13
2022-12-15T09:44:55.937Z,-3.10
2022-12-15T09:45:55.932Z,-3.07
2022-12-15T09:46:55.890Z,-3.02
2022-12-15T09:47:55.878Z,-2.98
2022-12-15T09:48:55.869Z,-2.97
2022-12-15T09:49:55.880Z,-2.94
2022-12-15T09:50:55.848Z,-2.89
2022-12-15T09:51:55.829Z,-2.87
2022-12-15T09:52:55.822Z,-2.86
2022-12-15T09:53:56.730Z,-2.86
2022-12-15T09:54:55.884Z,-2.87
2022-12-15T09:55:55.788Z,-2.86
2022-12-15T09:56:55.778Z,-2.83
2022-12-15T09:57:55.766Z,-2.77
2022-12-15T09:58:55.757Z,-2.74
2022-12-15T09:59:55.777Z,-2.71
2022-12-15T10:00:55.898Z,-2.65
2022-12-15T10:01:55.777Z,-2.61
2022-12-15T10:02:55.934Z,-2.58
2022-12-15T10:03:55.769Z,-2.58
2022-12-15T10:04:55.706Z,-2.55
2022-12-15T10:06:55.678Z,-2.48
2022-12-15T10:07:55.654Z,-2.46
2022-12-15T10:08:55.643Z,-2.43
2022-12-15T10:09:55.629Z,-2.40
2022-12-15T10:10:55.623Z,-2.29
2022-12-15T10:11:55.635Z,-2.25
2022-12-15T10:13:02.022Z,-2.26
2022-12-15T10:13:55.593Z,-2.32
2022-12-15T10:14:55.578Z,-2.37
2022-12-15T10:15:55.634Z,-2.26
2022-12-15T10:16:56.013Z,-2.24
2022-12-15T10:17:55.553Z,-2.22
2022-12-15T10:18:59.372Z,-2.24
2022-12-15T10:19:55.542Z,-2.21
2022-12-15T10:20:55.518Z,-2.19
2022-12-15T10:21:55.509Z,-2.16
2022-12-15T10:22:55.528Z,-2.11
2022-12-15T10:23:55.546Z,-2.07
2022-12-15T10:25:11.621Z,-2.08
2022-12-15T10:25:55.461Z,-2.04
2022-12-15T10:26:55.453Z,-2.00
2022-12-15T10:27:55.457Z,-1.93
2022-12-15T10:28:55.428Z,-1.88
2022-12-15T10:29:55.467Z,-1.83
2022-12-15T10:30:55.436Z,-1.78
2022-12-15T10:31:55.389Z,-1.80
2022-12-15T10:32:55.406Z,-1.80
2022-12-15T10:33:55.374Z,-1.75
2022-12-15T10:34:55.394Z,-1.71
2022-12-15T10:35:55.351Z,-1.68
2022-12-15T10:36:55.344Z,-1.62
2022-12-15T10:37:55.358Z,-1.53
2022-12-15T10:38:55.323Z,-1.38
2022-12-15T10:39:55.302Z,-1.18
2022-12-15T10:40:55.296Z,-0.86
2022-12-15T10:41:55.282Z,-0.55
2022-12-15T10:42:55.274Z,-0.37
2022-12-15T10:43:55.277Z,-0.08
2022-12-15T10:44:55.252Z,0.25
2022-12-15T10:45:55.288Z,0.44
2022-12-15T10:46:55.242Z,0.43
2022-12-15T10:47:55.212Z,0.62
2022-12-15T10:48:55.229Z,0.81
2022-12-15T10:49:55.194Z,0.99
2022-12-15T10:50:55.185Z,1.00
2022-12-15T10:51:55.172Z,0.89
2022-12-15T10:52:55.160Z,0.40
2022-12-15T10:53:55.171Z,0.19
2022-12-15T10:54:55.135Z,-0.08
2022-12-15T10:55:55.122Z,-0.26
2022-12-15T10:56:55.141Z,-0.21
2022-12-15T10:57:55.097Z,-0.19
2022-12-15T10:58:55.124Z,-0.09
2022-12-15T10:59:55.081Z,-0.03
2022-12-15T11:00:55.136Z,-0.03
2022-12-15T11:01:55.260Z,-0.12
2022-12-15T11:02:55.220Z,-0.06
2022-12-15T11:03:55.336Z,0.10
2022-12-15T11:04:55.047Z,0.10
2022-12-15T11:05:55.011Z,0.02
2022-12-15T11:06:55.006Z,0.08
2022-12-15T11:07:54.990Z,0.13
2022-12-15T11:08:54.981Z,0.16
2022-12-15T11:09:55.030Z,0.10
2022-12-15T11:10:54.953Z,-0.05
2022-12-15T11:11:54.948Z,-0.12
2022-12-15T11:12:58.578Z,-0.14
2022-12-15T11:13:54.953Z,-0.35
2022-12-15T11:14:55.052Z,-0.34
2022-12-15T11:15:55.216Z,-0.27
2022-12-15T11:16:54.887Z,-0.34
2022-12-15T11:17:54.890Z,-0.42
2022-12-15T11:18:54.869Z,-0.35
2022-12-15T11:20:01.929Z,-0.35
2022-12-15T11:20:54.869Z,-0.30
2022-12-15T11:21:54.844Z,-0.21
2022-12-15T11:22:54.858Z,-0.17
2022-12-15T11:23:54.836Z,-0.26
2022-12-15T11:24:54.794Z,-0.24
2022-12-15T11:25:54.816Z,-0.16
2022-12-15T11:26:54.778Z,-0.24
2022-12-15T11:27:54.811Z,-0.27
2022-12-15T11:28:54.754Z,-0.31
2022-12-15T11:29:54.746Z,-0.32
2022-12-15T11:30:54.755Z,-0.31
2022-12-15T11:31:54.732Z,-0.32
2022-12-15T11:32:55.084Z,-0.30
2022-12-15T11:33:54.714Z,-0.21
2022-12-15T11:34:54.686Z,-0.13
2022-12-15T11:35:54.703Z,-0.08
2022-12-15T11:36:54.664Z,-0.09
2022-12-15T11:37:54.660Z,-0.09
2022-12-15T11:38:54.710Z,-0.12
2022-12-15T11:39:54.634Z,-0.23
2022-12-15T11:40:54.646Z,-0.32
2022-12-15T11:41:54.614Z,-0.34
2022-12-15T11:42:54.846Z,-0.23
2022-12-15T11:43:54.633Z,-0.20
2022-12-15T11:44:54.576Z,-0.19
2022-12-15T11:45:54.605Z,-0.12
2022-12-15T11:46:54.554Z,-0.06
2022-12-15T11:47:54.549Z,-0.05
2022-12-15T11:48:54.540Z,0.02
2022-12-15T11:49:54.529Z,0.05
2022-12-15T11:50:54.508Z,0.08
2022-12-15T11:51:54.520Z,0.17
2022-12-15T11:52:54.526Z,0.23
2022-12-15T11:53:54.480Z,0.26
2022-12-15T11:54:54.480Z,0.26
2022-12-15T11:55:54.460Z,0.35
2022-12-15T11:56:54.473Z,0.44
2022-12-15T11:57:54.435Z,0.40
2022-12-15T11:58:54.421Z,0.44
2022-12-15T11:59:54.414Z,0.51
2022-12-15T12:00:54.399Z,0.60
2022-12-15T12:02:02.434Z,0.63
2022-12-15T12:02:54.452Z,0.68
2022-12-15T12:03:54.370Z,0.62
2022-12-15T12:04:54.352Z,0.62
2022-12-15T12:05:54.348Z,0.60
2022-12-15T12:06:54.330Z,0.57
2022-12-15T12:07:54.369Z,0.57
2022-12-15T12:08:54.321Z,0.60
2022-12-15T12:09:54.298Z,0.67
2022-12-15T12:10:54.325Z,0.63
2022-12-15T12:11:54.276Z,0.57
2022-12-15T12:12:54.269Z,0.51
2022-12-15T12:13:54.280Z,0.57
2022-12-15T12:14:54.253Z,0.70
2022-12-15T12:15:54.239Z,0.59
2022-12-15T12:16:54.221Z,0.60
2022-12-15T12:17:54.210Z,0.62
2022-12-15T12:18:54.289Z,0.62
2022-12-15T12:19:54.185Z,0.56
2022-12-15T12:20:54.230Z,0.62
2022-12-15T12:21:54.163Z,0.56
2022-12-15T12:22:54.161Z,0.60
2022-12-15T12:23:54.165Z,0.72
2022-12-15T12:24:54.137Z,0.72
2022-12-15T12:25:55.825Z,0.63
2022-12-15T12:26:54.166Z,0.60
2022-12-15T12:27:54.094Z,0.64
2022-12-15T12:28:54.114Z,0.63
2022-12-15T12:29:54.071Z,0.60
2022-12-15T12:30:54.065Z,0.67
2022-12-15T12:31:57.710Z,0.70
2022-12-15T12:32:54.187Z,0.64
2022-12-15T12:33:54.028Z,0.74
2022-12-15T12:34:54.044Z,0.81
2022-12-15T12:35:54.008Z,0.84
2022-12-15T12:36:54.041Z,0.92
2022-12-15T12:37:58.114Z,0.96
2022-12-15T12:38:53.980Z,1.02
2022-12-15T12:39:53.977Z,0.92
2022-12-15T12:40:53.951Z,0.93
2022-12-15T12:41:53.935Z,0.86
2022-12-15T12:42:53.939Z,0.77
2022-12-15T12:43:53.913Z,0.71
2022-12-15T12:44:53.968Z,0.75
2022-12-15T12:45:53.890Z,0.75
2022-12-15T12:46:53.883Z,0.84
2022-12-15T12:47:53.868Z,0.86
2022-12-15T12:48:53.859Z,0.86
2022-12-15T12:49:53.866Z,0.89
2022-12-15T12:50:53.838Z,0.84
2022-12-15T12:51:53.826Z,0.78
2022-12-15T12:52:53.823Z,0.75
2022-12-15T12:53:53.817Z,0.81
2022-12-15T12:54:53.841Z,0.88
2022-12-15T12:55:53.868Z,0.89